sensor_id;sensor_type;location;lat;lon;timestamp;temperature;humidity
46932;DHT22;32670;51.464;11.964;2022-09-09T00:02:21;23.60;53.10
46932;DHT22;32670;51.464;11.964;2022-09-09T00:05:25;23.60;53.00
46932;DHT22;32670;51.464;11.964;2022-09-09T00:07:55;23.60;52.90
46932;DHT22;32670;51.464;11.964;2022-09-09T00:10:38;23.60;53.00
46932;DHT22;32670;51.464;11.964;2022-09-09T00:13:25;23.60;52.90
46932;DHT22;32670;51.464;11.964;2022-09-09T00:16:13;23.50;52.90
46932;DHT22;32670;51.464;11.964;2022-09-09T00:18:54;23.60;53.00
46932;DHT22;32670;51.464;11.964;2022-09-09T00:21:35;23.60;52.90
46932;DHT22;32670;51.464;11.964;2022-09-09T00:24:22;23.50;53.00
46932;DHT22;32670;51.464;11.964;2022-09-09T00:26:53;23.50;53.00
46932;DHT22;32670;51.464;11.964;2022-09-09T00:29:53;23.50;53.10
46932;DHT22;32670;51.464;11.964;2022-09-09T00:32:20;23.50;52.90
46932;DHT22;32670;51.464;11.964;2022-09-09T00:34:59;23.50;53.00
46932;DHT22;32670;51.464;11.964;2022-09-09T00:37:26;23.50;53.00
46932;DHT22;32670;51.464;11.964;2022-09-09T00:39:56;23.50;53.00
46932;DHT22;32670;51.464;11.964;2022-09-09T00:42:36;23.50;53.10
46932;DHT22;32670;51.464;11.964;2022-09-09T00:45:24;23.40;53.10
46932;DHT22;32670;51.464;11.964;2022-09-09T00:47:54;23.40;53.00
46932;DHT22;32670;51.464;11.964;2022-09-09T00:50:38;23.40;53.10
46932;DHT22;32670;51.464;11.964;2022-09-09T00:53:51;23.40;53.00
46932;DHT22;32670;51.464;11.964;2022-09-09T00:59:36;23.40;52.90
46932;DHT22;32670;51.464;11.964;2022-09-09T01:02:21;23.40;52.80
46932;DHT22;32670;51.464;11.964;2022-09-09T01:04:48;23.40;52.80
46932;DHT22;32670;51.464;11.964;2022-09-09T01:07:17;23.40;52.90
46932;DHT22;32670;51.464;11.964;2022-09-09T01:10:11;23.40;52.90
46932;DHT22;32670;51.464;11.964;2022-09-09T01:12:46;23.40;52.80
46932;DHT22;32670;51.464;11.964;2022-09-09T01:15:14;23.40;52.80
46932;DHT22;32670;51.464;11.964;2022-09-09T01:17:54;23.30;52.90
46932;DHT22;32670;51.464;11.964;2022-09-09T01:20:25;23.30;52.90
46932;DHT22;32670;51.464;11.964;2022-09-09T01:28:13;23.30;53.00
46932;DHT22;32670;51.464;11.964;2022-09-09T01:30:41;23.30;52.90
46932;DHT22;32670;51.464;11.964;2022-09-09T01:33:12;23.20;52.90
46932;DHT22;32670;51.464;11.964;2022-09-09T01:35:55;23.20;52.90
46932;DHT22;32670;51.464;11.964;2022-09-09T01:38:24;23.20;52.80
46932;DHT22;32670;51.464;11.964;2022-09-09T01:40:51;23.20;52.90
46932;DHT22;32670;51.464;11.964;2022-09-09T01:43:21;23.20;52.90
46932;DHT22;32670;51.464;11.964;2022-09-09T01:45:51;23.20;52.90
46932;DHT22;32670;51.464;11.964;2022-09-09T01:48:18;23.20;52.90
46932;DHT22;32670;51.464;11.964;2022-09-09T01:50:44;23.20;53.40
46932;DHT22;32670;51.464;11.964;2022-09-09T01:53:10;23.20;52.90
46932;DHT22;32670;51.464;11.964;2022-09-09T01:55:41;23.20;52.90
46932;DHT22;32670;51.464;11.964;2022-09-09T01:58:37;23.20;52.90
46932;DHT22;32670;51.464;11.964;2022-09-09T02:03:52;23.20;52.80
46932;DHT22;32670;51.464;11.964;2022-09-09T02:06:45;23.20;52.80
46932;DHT22;32670;51.464;11.964;2022-09-09T02:09:12;23.20;52.70
46932;DHT22;32670;51.464;11.964;2022-09-09T02:11:39;23.20;52.90
46932;DHT22;32670;51.464;11.964;2022-09-09T02:14:12;23.20;52.90
46932;DHT22;32670;51.464;11.964;2022-09-09T02:16:42;23.20;52.90
46932;DHT22;32670;51.464;11.964;2022-09-09T02:19:19;23.20;53.00
46932;DHT22;32670;51.464;11.964;2022-09-09T02:21:52;23.10;53.00
46932;DHT22;32670;51.464;11.964;2022-09-09T02:24:19;23.20;53.10
46932;DHT22;32670;51.464;11.964;2022-09-09T02:26:46;23.10;53.10
46932;DHT22;32670;51.464;11.964;2022-09-09T02:29:22;23.10;53.10
46932;DHT22;32670;51.464;11.964;2022-09-09T02:31:50;23.10;53.20
46932;DHT22;32670;51.464;11.964;2022-09-09T02:34:17;23.10;53.30
46932;DHT22;32670;51.464;11.964;2022-09-09T02:36:45;23.10;53.40
46932;DHT22;32670;51.464;11.964;2022-09-09T02:39:12;23.10;53.30
46932;DHT22;32670;51.464;11.964;2022-09-09T02:41:41;23.10;53.40
46932;DHT22;32670;51.464;11.964;2022-09-09T02:44:17;23.10;53.50
46932;DHT22;32670;51.464;11.964;2022-09-09T02:49:28;23.00;53.70
46932;DHT22;32670;51.464;11.964;2022-09-09T02:52:00;23.00;53.70
46932;DHT22;32670;51.464;11.964;2022-09-09T02:54:31;23.00;53.80
46932;DHT22;32670;51.464;11.964;2022-09-09T02:57:11;23.00;53.80
46932;DHT22;32670;51.464;11.964;2022-09-09T02:59:38;23.00;53.90
46932;DHT22;32670;51.464;11.964;2022-09-09T03:02:04;23.00;54.00
46932;DHT22;32670;51.464;11.964;2022-09-09T03:04:30;22.90;54.00
46932;DHT22;32670;51.464;11.964;2022-09-09T03:06:57;23.00;54.00
46932;DHT22;32670;51.464;11.964;2022-09-09T03:09:23;22.90;54.00
46932;DHT22;32670;51.464;11.964;2022-09-09T03:11:49;22.90;54.00
46932;DHT22;32670;51.464;11.964;2022-09-09T03:14:15;22.90;54.00
46932;DHT22;32670;51.464;11.964;2022-09-09T03:16:41;22.90;54.00
46932;DHT22;32670;51.464;11.964;2022-09-09T03:19:08;22.90;54.10
46932;DHT22;32670;51.464;11.964;2022-09-09T03:21:33;22.90;54.20
46932;DHT22;32670;51.464;11.964;2022-09-09T03:23:59;22.90;54.20
46932;DHT22;32670;51.464;11.964;2022-09-09T03:26:25;22.90;54.20
46932;DHT22;32670;51.464;11.964;2022-09-09T03:28:50;22.90;54.20
46932;DHT22;32670;51.464;11.964;2022-09-09T03:31:17;22.90;54.20
46932;DHT22;32670;51.464;11.964;2022-09-09T03:33:43;22.90;54.20
46932;DHT22;32670;51.464;11.964;2022-09-09T03:36:09;22.90;54.20
46932;DHT22;32670;51.464;11.964;2022-09-09T03:38:34;22.90;54.20
46932;DHT22;32670;51.464;11.964;2022-09-09T03:41:00;22.90;54.20
46932;DHT22;32670;51.464;11.964;2022-09-09T03:43:27;22.80;54.30
46932;DHT22;32670;51.464;11.964;2022-09-09T03:45:53;22.80;54.30
46932;DHT22;32670;51.464;11.964;2022-09-09T03:48:21;22.80;54.40
46932;DHT22;32670;51.464;11.964;2022-09-09T03:50:49;22.80;54.40
46932;DHT22;32670;51.464;11.964;2022-09-09T03:53:16;22.80;54.40
46932;DHT22;32670;51.464;11.964;2022-09-09T03:55:46;22.80;54.50
46932;DHT22;32670;51.464;11.964;2022-09-09T03:58:13;22.80;54.50
46932;DHT22;32670;51.464;11.964;2022-09-09T04:00:39;22.80;54.50
46932;DHT22;32670;51.464;11.964;2022-09-09T04:03:08;22.70;54.50
46932;DHT22;32670;51.464;11.964;2022-09-09T04:05:34;22.70;54.50
46932;DHT22;32670;51.464;11.964;2022-09-09T04:08:00;22.70;54.60
46932;DHT22;32670;51.464;11.964;2022-09-09T04:10:25;22.70;54.60
46932;DHT22;32670;51.464;11.964;2022-09-09T04:12:51;22.70;54.60
46932;DHT22;32670;51.464;11.964;2022-09-09T04:15:17;22.70;54.60
46932;DHT22;32670;51.464;11.964;2022-09-09T04:17:43;22.70;54.60
46932;DHT22;32670;51.464;11.964;2022-09-09T04:20:09;22.70;54.60
46932;DHT22;32670;51.464;11.964;2022-09-09T04:22:37;22.60;54.60
46932;DHT22;32670;51.464;11.964;2022-09-09T04:25:05;22.60;54.60
46932;DHT22;32670;51.464;11.964;2022-09-09T04:27:31;22.60;54.70
46932;DHT22;32670;51.464;11.964;2022-09-09T04:29:57;22.60;54.70
46932;DHT22;32670;51.464;11.964;2022-09-09T04:32:23;22.60;54.70
46932;DHT22;32670;51.464;11.964;2022-09-09T04:34:48;22.60;54.70
46932;DHT22;32670;51.464;11.964;2022-09-09T04:37:14;22.60;54.70
46932;DHT22;32670;51.464;11.964;2022-09-09T04:39:39;22.60;54.60
46932;DHT22;32670;51.464;11.964;2022-09-09T04:42:05;22.60;54.70
46932;DHT22;32670;51.464;11.964;2022-09-09T04:44:30;22.60;54.60
46932;DHT22;32670;51.464;11.964;2022-09-09T04:46:55;22.60;54.60
46932;DHT22;32670;51.464;11.964;2022-09-09T04:49:21;22.60;54.60
46932;DHT22;32670;51.464;11.964;2022-09-09T04:51:49;22.60;54.60
46932;DHT22;32670;51.464;11.964;2022-09-09T04:54:14;22.60;54.60
46932;DHT22;32670;51.464;11.964;2022-09-09T04:56:40;22.60;54.60
46932;DHT22;32670;51.464;11.964;2022-09-09T04:59:07;22.60;54.70
46932;DHT22;32670;51.464;11.964;2022-09-09T05:01:33;22.60;54.70
46932;DHT22;32670;51.464;11.964;2022-09-09T05:03:58;22.50;54.70
46932;DHT22;32670;51.464;11.964;2022-09-09T05:06:24;22.50;54.70
46932;DHT22;32670;51.464;11.964;2022-09-09T05:08:50;22.50;54.80
46932;DHT22;32670;51.464;11.964;2022-09-09T05:11:18;22.50;54.80
46932;DHT22;32670;51.464;11.964;2022-09-09T05:13:44;22.50;54.90
46932;DHT22;32670;51.464;11.964;2022-09-09T05:16:10;22.50;54.90
46932;DHT22;32670;51.464;11.964;2022-09-09T05:18:39;22.50;55.00
46932;DHT22;32670;51.464;11.964;2022-09-09T05:21:06;22.50;55.00
46932;DHT22;32670;51.464;11.964;2022-09-09T05:23:35;22.50;55.10
46932;DHT22;32670;51.464;11.964;2022-09-09T05:26:01;22.50;55.20
46932;DHT22;32670;51.464;11.964;2022-09-09T05:28:27;22.50;55.20
46932;DHT22;32670;51.464;11.964;2022-09-09T05:33:23;22.50;55.30
46932;DHT22;32670;51.464;11.964;2022-09-09T05:36:05;22.60;55.50
46932;DHT22;32670;51.464;11.964;2022-09-09T05:38:31;22.60;55.60
46932;DHT22;32670;51.464;11.964;2022-09-09T05:41:01;22.80;55.80
46932;DHT22;32670;51.464;11.964;2022-09-09T05:43:28;22.80;55.70
46932;DHT22;32670;51.464;11.964;2022-09-09T05:46:02;23.00;55.80
46932;DHT22;32670;51.464;11.964;2022-09-09T05:48:30;23.00;55.80
46932;DHT22;32670;51.464;11.964;2022-09-09T05:50:56;23.10;55.80
46932;DHT22;32670;51.464;11.964;2022-09-09T05:53:21;23.20;55.80
46932;DHT22;32670;51.464;11.964;2022-09-09T05:55:47;23.20;55.70
46932;DHT22;32670;51.464;11.964;2022-09-09T05:58:13;23.30;55.80
46932;DHT22;32670;51.464;11.964;2022-09-09T06:00:39;23.30;55.70
46932;DHT22;32670;51.464;11.964;2022-09-09T06:03:05;23.30;55.40
46932;DHT22;32670;51.464;11.964;2022-09-09T06:05:30;23.30;55.50
46932;DHT22;32670;51.464;11.964;2022-09-09T06:07:56;23.40;55.70
46932;DHT22;32670;51.464;11.964;2022-09-09T06:10:21;23.40;55.70
46932;DHT22;32670;51.464;11.964;2022-09-09T06:12:47;23.40;55.80
46932;DHT22;32670;51.464;11.964;2022-09-09T06:15:12;23.40;55.80
46932;DHT22;32670;51.464;11.964;2022-09-09T06:17:38;23.40;55.90
46932;DHT22;32670;51.464;11.964;2022-09-09T06:20:04;23.40;56.00
46932;DHT22;32670;51.464;11.964;2022-09-09T06:22:30;23.50;56.00
46932;DHT22;32670;51.464;11.964;2022-09-09T06:24:56;23.50;56.20
46932;DHT22;32670;51.464;11.964;2022-09-09T06:27:21;23.40;56.10
46932;DHT22;32670;51.464;11.964;2022-09-09T06:29:47;23.50;56.20
46932;DHT22;32670;51.464;11.964;2022-09-09T06:32:13;23.50;56.40
46932;DHT22;32670;51.464;11.964;2022-09-09T06:34:38;23.50;56.50
46932;DHT22;32670;51.464;11.964;2022-09-09T06:37:04;23.50;56.60
46932;DHT22;32670;51.464;11.964;2022-09-09T06:39:31;23.50;56.60
46932;DHT22;32670;51.464;11.964;2022-09-09T06:41:57;23.50;56.60
46932;DHT22;32670;51.464;11.964;2022-09-09T06:44:24;23.60;56.70
46932;DHT22;32670;51.464;11.964;2022-09-09T06:46:52;23.60;56.90
46932;DHT22;32670;51.464;11.964;2022-09-09T06:49:17;23.60;56.90
46932;DHT22;32670;51.464;11.964;2022-09-09T06:51:43;23.60;56.80
46932;DHT22;32670;51.464;11.964;2022-09-09T06:54:09;23.60;56.90
46932;DHT22;32670;51.464;11.964;2022-09-09T06:56:37;23.60;56.90
46932;DHT22;32670;51.464;11.964;2022-09-09T06:59:05;23.60;56.80
46932;DHT22;32670;51.464;11.964;2022-09-09T07:01:33;23.70;56.70
46932;DHT22;32670;51.464;11.964;2022-09-09T07:03:59;23.70;56.90
46932;DHT22;32670;51.464;11.964;2022-09-09T07:06:30;23.70;56.90
46932;DHT22;32670;51.464;11.964;2022-09-09T07:09:01;23.70;57.20
46932;DHT22;32670;51.464;11.964;2022-09-09T07:11:31;23.70;57.20
46932;DHT22;32670;51.464;11.964;2022-09-09T07:13:59;23.70;57.20
46932;DHT22;32670;51.464;11.964;2022-09-09T07:16:25;23.70;57.30
46932;DHT22;32670;51.464;11.964;2022-09-09T07:18:52;23.70;57.30
46932;DHT22;32670;51.464;11.964;2022-09-09T07:21:18;23.80;57.20
46932;DHT22;32670;51.464;11.964;2022-09-09T07:23:46;23.80;57.20
46932;DHT22;32670;51.464;11.964;2022-09-09T07:26:17;23.80;56.90
46932;DHT22;32670;51.464;11.964;2022-09-09T07:28:45;23.90;58.90
46932;DHT22;32670;51.464;11.964;2022-09-09T07:33:50;23.90;58.70
46932;DHT22;32670;51.464;11.964;2022-09-09T07:36:24;24.00;58.30
46932;DHT22;32670;51.464;11.964;2022-09-09T07:38:53;24.00;57.10
46932;DHT22;32670;51.464;11.964;2022-09-09T07:41:24;24.00;57.30
46932;DHT22;32670;51.464;11.964;2022-09-09T07:43:50;24.00;56.60
46932;DHT22;32670;51.464;11.964;2022-09-09T07:46:18;23.90;56.70
46932;DHT22;32670;51.464;11.964;2022-09-09T07:48:49;23.90;56.40
46932;DHT22;32670;51.464;11.964;2022-09-09T07:51:23;24.00;56.50
46932;DHT22;32670;51.464;11.964;2022-09-09T07:53:53;24.00;56.80
46932;DHT22;32670;51.464;11.964;2022-09-09T07:56:18;24.00;56.90
46932;DHT22;32670;51.464;11.964;2022-09-09T07:58:47;23.90;57.00
46932;DHT22;32670;51.464;11.964;2022-09-09T08:01:19;24.00;57.10
46932;DHT22;32670;51.464;11.964;2022-09-09T08:03:45;24.00;57.20
46932;DHT22;32670;51.464;11.964;2022-09-09T08:06:11;24.00;57.20
46932;DHT22;32670;51.464;11.964;2022-09-09T08:08:38;24.00;57.40
46932;DHT22;32670;51.464;11.964;2022-09-09T08:11:24;24.00;57.50
46932;DHT22;32670;51.464;11.964;2022-09-09T08:13:51;23.90;57.50
46932;DHT22;32670;51.464;11.964;2022-09-09T08:16:19;24.00;57.40
46932;DHT22;32670;51.464;11.964;2022-09-09T08:18:47;24.00;57.40
46932;DHT22;32670;51.464;11.964;2022-09-09T08:21:16;24.00;57.50
46932;DHT22;32670;51.464;11.964;2022-09-09T08:23:44;24.00;57.40
46932;DHT22;32670;51.464;11.964;2022-09-09T08:26:16;24.00;57.50
46932;DHT22;32670;51.464;11.964;2022-09-09T08:28:42;24.00;57.50
46932;DHT22;32670;51.464;11.964;2022-09-09T08:31:14;24.00;57.50
46932;DHT22;32670;51.464;11.964;2022-09-09T08:33:40;24.10;57.60
46932;DHT22;32670;51.464;11.964;2022-09-09T08:36:09;24.10;57.50
46932;DHT22;32670;51.464;11.964;2022-09-09T08:38:35;24.10;57.80
46932;DHT22;32670;51.464;11.964;2022-09-09T08:41:35;24.10;57.90
46932;DHT22;32670;51.464;11.964;2022-09-09T08:44:10;24.10;58.00
46932;DHT22;32670;51.464;11.964;2022-09-09T08:46:52;24.10;58.00
46932;DHT22;32670;51.464;11.964;2022-09-09T08:52:18;24.20;58.20
46932;DHT22;32670;51.464;11.964;2022-09-09T08:54:46;24.20;58.00
46932;DHT22;32670;51.464;11.964;2022-09-09T08:57:16;24.20;58.50
46932;DHT22;32670;51.464;11.964;2022-09-09T08:59:43;24.20;57.90
46932;DHT22;32670;51.464;11.964;2022-09-09T09:02:21;24.20;57.70
46932;DHT22;32670;51.464;11.964;2022-09-09T09:05:09;24.20;58.20
46932;DHT22;32670;51.464;11.964;2022-09-09T09:07:46;24.20;58.20
46932;DHT22;32670;51.464;11.964;2022-09-09T09:10:39;24.20;58.10
46932;DHT22;32670;51.464;11.964;2022-09-09T09:13:29;24.30;58.10
46932;DHT22;32670;51.464;11.964;2022-09-09T09:16:00;24.30;58.00
46932;DHT22;32670;51.464;11.964;2022-09-09T09:18:27;24.30;57.80
46932;DHT22;32670;51.464;11.964;2022-09-09T09:21:08;24.30;57.70
46932;DHT22;32670;51.464;11.964;2022-09-09T09:23:55;24.30;58.00
46932;DHT22;32670;51.464;11.964;2022-09-09T09:26:23;24.30;58.10
46932;DHT22;32670;51.464;11.964;2022-09-09T09:28:54;24.40;58.30
46932;DHT22;32670;51.464;11.964;2022-09-09T09:31:21;24.40;58.30
46932;DHT22;32670;51.464;11.964;2022-09-09T09:33:55;24.40;58.50
46932;DHT22;32670;51.464;11.964;2022-09-09T09:36:41;24.40;58.70
46932;DHT22;32670;51.464;11.964;2022-09-09T09:39:07;24.40;58.80
46932;DHT22;32670;51.464;11.964;2022-09-09T09:41:36;24.40;58.30
46932;DHT22;32670;51.464;11.964;2022-09-09T09:44:04;24.40;58.10
46932;DHT22;32670;51.464;11.964;2022-09-09T09:46:31;24.40;57.50
46932;DHT22;32670;51.464;11.964;2022-09-09T09:49:02;24.40;57.30
46932;DHT22;32670;51.464;11.964;2022-09-09T09:51:29;24.40;57.30
46932;DHT22;32670;51.464;11.964;2022-09-09T09:54:08;24.40;57.30
46932;DHT22;32670;51.464;11.964;2022-09-09T09:56:35;24.40;57.40
46932;DHT22;32670;51.464;11.964;2022-09-09T09:59:00;24.40;57.30
46932;DHT22;32670;51.464;11.964;2022-09-09T10:01:31;24.40;57.80
46932;DHT22;32670;51.464;11.964;2022-09-09T10:04:19;24.50;58.00
46932;DHT22;32670;51.464;11.964;2022-09-09T10:06:46;24.50;58.20
46932;DHT22;32670;51.464;11.964;2022-09-09T10:09:29;24.50;58.30
46932;DHT22;32670;51.464;11.964;2022-09-09T10:12:08;24.60;58.30
46932;DHT22;32670;51.464;11.964;2022-09-09T10:15:42;24.60;58.20
46932;DHT22;32670;51.464;11.964;2022-09-09T10:20:50;24.70;58.40
46932;DHT22;32670;51.464;11.964;2022-09-09T10:30:09;24.80;58.50
46932;DHT22;32670;51.464;11.964;2022-09-09T10:32:37;24.70;58.30
46932;DHT22;32670;51.464;11.964;2022-09-09T10:35:11;24.70;58.30
46932;DHT22;32670;51.464;11.964;2022-09-09T10:43:53;24.80;58.50
46932;DHT22;32670;51.464;11.964;2022-09-09T10:46:46;24.70;58.50
46932;DHT22;32670;51.464;11.964;2022-09-09T10:52:15;24.70;58.60
46932;DHT22;32670;51.464;11.964;2022-09-09T10:57:29;24.80;58.70
46932;DHT22;32670;51.464;11.964;2022-09-09T10:59:59;24.80;58.70
46932;DHT22;32670;51.464;11.964;2022-09-09T11:02:30;24.80;58.70
46932;DHT22;32670;51.464;11.964;2022-09-09T11:05:17;24.80;58.80
46932;DHT22;32670;51.464;11.964;2022-09-09T11:07:55;24.80;58.80
46932;DHT22;32670;51.464;11.964;2022-09-09T11:10:36;24.80;58.90
46932;DHT22;32670;51.464;11.964;2022-09-09T11:13:09;24.80;59.00
46932;DHT22;32670;51.464;11.964;2022-09-09T11:15:41;24.80;59.00
46932;DHT22;32670;51.464;11.964;2022-09-09T11:18:11;24.80;58.90
46932;DHT22;32670;51.464;11.964;2022-09-09T11:20:38;24.80;59.00
46932;DHT22;32670;51.464;11.964;2022-09-09T11:23:17;24.90;58.90
46932;DHT22;32670;51.464;11.964;2022-09-09T11:25:51;24.90;59.10
46932;DHT22;32670;51.464;11.964;2022-09-09T11:33:39;24.90;58.80
46932;DHT22;32670;51.464;11.964;2022-09-09T11:39:31;24.90;59.20
46932;DHT22;32670;51.464;11.964;2022-09-09T11:42:21;24.90;59.10
46932;DHT22;32670;51.464;11.964;2022-09-09T11:44:47;24.90;59.10
46932;DHT22;32670;51.464;11.964;2022-09-09T11:47:23;25.00;59.00
46932;DHT22;32670;51.464;11.964;2022-09-09T11:49:51;24.90;59.10
46932;DHT22;32670;51.464;11.964;2022-09-09T11:54:49;25.00;59.50
46932;DHT22;32670;51.464;11.964;2022-09-09T11:57:36;24.90;59.40
46932;DHT22;32670;51.464;11.964;2022-09-09T12:00:03;24.90;59.30
46932;DHT22;32670;51.464;11.964;2022-09-09T12:02:30;25.00;59.20
46932;DHT22;32670;51.464;11.964;2022-09-09T12:05:06;25.00;59.30
46932;DHT22;32670;51.464;11.964;2022-09-09T12:07:52;25.00;59.20
46932;DHT22;32670;51.464;11.964;2022-09-09T12:10:27;25.00;59.30
46932;DHT22;32670;51.464;11.964;2022-09-09T12:12:54;25.00;59.10
46932;DHT22;32670;51.464;11.964;2022-09-09T12:15:23;25.00;59.40
46932;DHT22;32670;51.464;11.964;2022-09-09T12:17:52;25.00;59.30
46932;DHT22;32670;51.464;11.964;2022-09-09T12:25:47;25.00;59.40
46932;DHT22;32670;51.464;11.964;2022-09-09T12:28:18;25.00;59.20
46932;DHT22;32670;51.464;11.964;2022-09-09T12:33:37;25.00;59.20
46932;DHT22;32670;51.464;11.964;2022-09-09T12:36:12;25.00;59.10
46932;DHT22;32670;51.464;11.964;2022-09-09T12:38:40;25.10;59.20
46932;DHT22;32670;51.464;11.964;2022-09-09T12:41:21;25.10;59.10
46932;DHT22;32670;51.464;11.964;2022-09-09T12:43:47;25.10;59.30
46932;DHT22;32670;51.464;11.964;2022-09-09T12:46:38;25.10;59.30
46932;DHT22;32670;51.464;11.964;2022-09-09T12:49:18;25.10;59.30
46932;DHT22;32670;51.464;11.964;2022-09-09T12:51:46;25.20;59.20
46932;DHT22;32670;51.464;11.964;2022-09-09T12:54:15;25.10;59.10
46932;DHT22;32670;51.464;11.964;2022-09-09T12:56:45;25.10;59.30
46932;DHT22;32670;51.464;11.964;2022-09-09T12:59:27;25.10;59.30
46932;DHT22;32670;51.464;11.964;2022-09-09T13:01:59;25.10;59.20
46932;DHT22;32670;51.464;11.964;2022-09-09T13:04:25;25.10;59.10
46932;DHT22;32670;51.464;11.964;2022-09-09T13:06:50;25.10;59.10
46932;DHT22;32670;51.464;11.964;2022-09-09T13:09:17;25.10;58.90
46932;DHT22;32670;51.464;11.964;2022-09-09T13:11:50;25.10;59.00
46932;DHT22;32670;51.464;11.964;2022-09-09T13:14:18;25.20;59.10
46932;DHT22;32670;51.464;11.964;2022-09-09T13:16:58;25.20;58.80
46932;DHT22;32670;51.464;11.964;2022-09-09T13:19:24;25.20;58.70
46932;DHT22;32670;51.464;11.964;2022-09-09T13:21:53;25.20;58.80
46932;DHT22;32670;51.464;11.964;2022-09-09T13:24:33;25.20;58.90
46932;DHT22;32670;51.464;11.964;2022-09-09T13:27:02;25.20;58.70
46932;DHT22;32670;51.464;11.964;2022-09-09T13:29:29;25.20;58.60
46932;DHT22;32670;51.464;11.964;2022-09-09T13:32:04;25.20;58.60
46932;DHT22;32670;51.464;11.964;2022-09-09T13:34:33;25.30;58.70
46932;DHT22;32670;51.464;11.964;2022-09-09T13:37:04;25.30;58.70
46932;DHT22;32670;51.464;11.964;2022-09-09T13:39:37;25.30;58.80
46932;DHT22;32670;51.464;11.964;2022-09-09T13:42:03;25.30;58.70
46932;DHT22;32670;51.464;11.964;2022-09-09T13:44:33;25.30;58.70
46932;DHT22;32670;51.464;11.964;2022-09-09T13:49:39;25.30;58.40
46932;DHT22;32670;51.464;11.964;2022-09-09T13:52:10;25.30;58.50
46932;DHT22;32670;51.464;11.964;2022-09-09T13:54:37;25.30;58.40
46932;DHT22;32670;51.464;11.964;2022-09-09T13:57:03;25.40;58.40
46932;DHT22;32670;51.464;11.964;2022-09-09T13:59:30;25.30;58.40
46932;DHT22;32670;51.464;11.964;2022-09-09T14:01:57;25.30;58.30
46932;DHT22;32670;51.464;11.964;2022-09-09T14:04:22;25.30;58.20
46932;DHT22;32670;51.464;11.964;2022-09-09T14:06:48;25.30;58.70
46932;DHT22;32670;51.464;11.964;2022-09-09T14:09:16;25.30;58.50
46932;DHT22;32670;51.464;11.964;2022-09-09T14:11:42;25.30;58.70
46932;DHT22;32670;51.464;11.964;2022-09-09T14:14:08;25.40;58.90
46932;DHT22;32670;51.464;11.964;2022-09-09T14:16:34;25.40;58.90
46932;DHT22;32670;51.464;11.964;2022-09-09T14:18:59;25.40;58.70
46932;DHT22;32670;51.464;11.964;2022-09-09T14:21:27;25.40;58.70
46932;DHT22;32670;51.464;11.964;2022-09-09T14:23:52;25.40;58.50
46932;DHT22;32670;51.464;11.964;2022-09-09T14:26:18;25.40;58.30
46932;DHT22;32670;51.464;11.964;2022-09-09T14:28:46;25.40;58.30
46932;DHT22;32670;51.464;11.964;2022-09-09T14:31:12;25.40;58.40
46932;DHT22;32670;51.464;11.964;2022-09-09T14:33:38;25.40;58.70
46932;DHT22;32670;51.464;11.964;2022-09-09T14:36:04;25.40;58.60
46932;DHT22;32670;51.464;11.964;2022-09-09T14:38:34;25.50;58.60
46932;DHT22;32670;51.464;11.964;2022-09-09T14:41:10;25.40;58.50
46932;DHT22;32670;51.464;11.964;2022-09-09T14:43:40;25.50;57.40
46932;DHT22;32670;51.464;11.964;2022-09-09T14:46:10;25.40;56.70
46932;DHT22;32670;51.464;11.964;2022-09-09T14:48:36;25.40;57.00
46932;DHT22;32670;51.464;11.964;2022-09-09T14:51:10;25.40;57.40
46932;DHT22;32670;51.464;11.964;2022-09-09T14:53:38;25.40;57.30
46932;DHT22;32670;51.464;11.964;2022-09-09T14:56:18;25.50;57.50
46932;DHT22;32670;51.464;11.964;2022-09-09T14:58:44;25.50;57.10
46932;DHT22;32670;51.464;11.964;2022-09-09T15:01:15;25.50;57.10
46932;DHT22;32670;51.464;11.964;2022-09-09T15:03:41;25.50;57.10
46932;DHT22;32670;51.464;11.964;2022-09-09T15:06:12;25.50;57.00
46932;DHT22;32670;51.464;11.964;2022-09-09T15:08:42;25.50;57.10
46932;DHT22;32670;51.464;11.964;2022-09-09T15:11:10;25.50;57.20
46932;DHT22;32670;51.464;11.964;2022-09-09T15:13:37;25.50;57.20
46932;DHT22;32670;51.464;11.964;2022-09-09T15:16:08;25.50;57.10
46932;DHT22;32670;51.464;11.964;2022-09-09T15:18:34;25.50;57.20
46932;DHT22;32670;51.464;11.964;2022-09-09T15:21:04;25.50;57.50
46932;DHT22;32670;51.464;11.964;2022-09-09T15:23:35;25.50;57.50
46932;DHT22;32670;51.464;11.964;2022-09-09T15:26:01;25.50;57.30
46932;DHT22;32670;51.464;11.964;2022-09-09T15:28:27;25.50;57.40
46932;DHT22;32670;51.464;11.964;2022-09-09T15:30:54;25.50;57.50
46932;DHT22;32670;51.464;11.964;2022-09-09T15:33:20;25.50;57.40
46932;DHT22;32670;51.464;11.964;2022-09-09T15:35:47;25.50;57.70
46932;DHT22;32670;51.464;11.964;2022-09-09T15:38:12;25.50;57.60
46932;DHT22;32670;51.464;11.964;2022-09-09T15:40:39;25.50;57.50
46932;DHT22;32670;51.464;11.964;2022-09-09T15:43:05;25.50;57.90
46932;DHT22;32670;51.464;11.964;2022-09-09T15:45:31;25.50;57.80
46932;DHT22;32670;51.464;11.964;2022-09-09T15:48:01;25.50;57.50
46932;DHT22;32670;51.464;11.964;2022-09-09T15:50:27;25.50;57.90
46932;DHT22;32670;51.464;11.964;2022-09-09T15:52:53;25.50;57.60
46932;DHT22;32670;51.464;11.964;2022-09-09T15:55:19;25.50;57.60
46932;DHT22;32670;51.464;11.964;2022-09-09T15:57:49;25.60;57.60
46932;DHT22;32670;51.464;11.964;2022-09-09T16:00:15;25.60;58.00
46932;DHT22;32670;51.464;11.964;2022-09-09T16:02:41;25.60;58.10
46932;DHT22;32670;51.464;11.964;2022-09-09T16:05:06;25.60;58.00
46932;DHT22;32670;51.464;11.964;2022-09-09T16:07:32;25.60;58.00
46932;DHT22;32670;51.464;11.964;2022-09-09T16:09:57;25.60;57.70
46932;DHT22;32670;51.464;11.964;2022-09-09T16:12:23;25.60;57.70
46932;DHT22;32670;51.464;11.964;2022-09-09T16:14:48;25.60;57.70
46932;DHT22;32670;51.464;11.964;2022-09-09T16:17:14;25.60;58.00
46932;DHT22;32670;51.464;11.964;2022-09-09T16:19:40;25.60;57.80
46932;DHT22;32670;51.464;11.964;2022-09-09T16:22:05;25.60;57.80
46932;DHT22;32670;51.464;11.964;2022-09-09T16:24:32;25.60;57.70
46932;DHT22;32670;51.464;11.964;2022-09-09T16:26:58;25.60;57.60
46932;DHT22;32670;51.464;11.964;2022-09-09T16:29:24;25.60;57.60
46932;DHT22;32670;51.464;11.964;2022-09-09T16:31:53;25.60;57.60
46932;DHT22;32670;51.464;11.964;2022-09-09T16:34:19;25.60;57.60
46932;DHT22;32670;51.464;11.964;2022-09-09T16:36:45;25.60;57.80
46932;DHT22;32670;51.464;11.964;2022-09-09T16:39:13;25.60;57.70
46932;DHT22;32670;51.464;11.964;2022-09-09T16:41:39;25.60;57.60